Weather at Chatsworth Airport

Public forecast

Using degrees Celsius for public forecast. Weather courtesy of forecast.io.

Closest aviation weather report (METAR) to Chatsworth Airport

Report is more than 6 hours old.

Closest report is Mount Gambier Airport, 87.3 nm (161.8 km) W. Retrieved 2022/05/23 06:00 UTC (1 day ago):

YMTG 230600Z AUTO 07007KT 9999 // NCD 19/08 Q1026

Closest aviation forecast (TAF) to Chatsworth Airport

Closest forecast is Avalon Airport, 88.2 nm (163.4 km) E. Retrieved 2022/05/24 06:36 UTC (2 hours ago):

TAF TAF YMAV 240507Z 2406/2506 11008KT CAVOK FM241100 05005KT CAVOK FM250100 03014KT CAVOK